createdAt,value
2022-11-15T00:02:08.674Z,10.94
2022-11-15T00:04:38.781Z,12.45
2022-11-15T00:07:06.778Z,12.66
2022-11-15T00:09:34.171Z,12.84
2022-11-15T00:12:06.747Z,10.71
2022-11-15T00:14:37.626Z,12.25
2022-11-15T00:17:04.689Z,12.12
2022-11-15T00:19:31.768Z,12.14
2022-11-15T00:22:01.459Z,12.25
2022-11-15T00:24:32.109Z,13.07
2022-11-15T00:26:59.202Z,13.06
2022-11-15T00:29:28.582Z,13.04
2022-11-15T00:31:58.962Z,12.38
2022-11-15T00:34:29.007Z,12.62
2022-11-15T00:37:04.293Z,13.03
2022-11-15T00:39:31.516Z,12.70
2022-11-15T00:42:01.291Z,13.04
2022-11-15T00:44:31.560Z,12.87
2022-11-15T00:47:04.902Z,12.82
2022-11-15T00:49:32.245Z,12.69
2022-11-15T00:51:59.321Z,12.29
2022-11-15T00:54:27.603Z,12.07
2022-11-15T00:56:58.698Z,12.36
2022-11-15T00:59:28.724Z,12.41
2022-11-15T01:01:55.873Z,12.38
2022-11-15T01:04:25.497Z,12.47
2022-11-15T01:06:56.271Z,12.38
2022-11-15T01:09:28.827Z,12.23
2022-11-15T01:11:59.535Z,12.16
2022-11-15T01:14:26.818Z,12.03
2022-11-15T01:16:56.999Z,12.56
2022-11-15T01:19:24.260Z,12.76
2022-11-15T01:21:52.440Z,12.87
2022-11-15T01:24:20.004Z,12.96
2022-11-15T01:26:58.097Z,12.74
2022-11-15T01:29:27.893Z,12.60
2022-11-15T01:31:56.263Z,12.72
2022-11-15T01:34:27.780Z,12.57
2022-11-15T01:36:54.902Z,12.49
2022-11-15T01:39:23.160Z,12.37
2022-11-15T01:41:53.178Z,12.51
2022-11-15T01:45:10.046Z,12.32
2022-11-15T01:47:49.400Z,11.76
2022-11-15T01:50:35.526Z,11.34
2022-11-15T01:53:08.922Z,11.74
2022-11-15T01:55:37.629Z,11.53
2022-11-15T01:58:07.814Z,11.75
2022-11-15T02:00:36.114Z,11.87
2022-11-15T02:03:17.502Z,12.37
2022-11-15T02:05:45.622Z,12.63
2022-11-15T02:08:21.012Z,12.44
2022-11-15T02:10:51.526Z,11.99
2022-11-15T02:13:20.071Z,9.84
2022-11-15T02:16:33.426Z,10.52
2022-11-15T02:19:31.904Z,11.10
2022-11-15T02:22:57.342Z,11.60
2022-11-15T02:26:06.581Z,11.67
2022-11-15T02:28:46.812Z,11.59
2022-11-15T02:31:59.467Z,12.25
2022-11-15T02:34:44.007Z,12.11
2022-11-15T02:37:30.310Z,10.84
2022-11-15T02:40:28.191Z,11.66
2022-11-15T02:43:25.414Z,11.59
2022-11-15T02:46:19.760Z,11.86
2022-11-15T02:48:56.286Z,12.14
2022-11-15T02:51:30.643Z,12.45
2022-11-15T02:53:58.274Z,12.49
2022-11-15T02:56:26.230Z,12.54
2022-11-15T02:59:32.055Z,12.50
2022-11-15T03:02:40.437Z,12.61
2022-11-15T03:05:39.284Z,11.87
2022-11-15T03:08:44.907Z,11.72
2022-11-15T03:11:29.294Z,11.07
2022-11-15T03:14:41.677Z,11.55
2022-11-15T03:17:16.622Z,12.12
2022-11-15T03:19:58.500Z,11.30
2022-11-15T03:22:40.088Z,11.77
2022-11-15T03:25:12.952Z,12.44
2022-11-15T03:27:48.906Z,12.59
2022-11-15T03:30:19.928Z,12.79
2022-11-15T03:33:03.372Z,13.01
2022-11-15T03:35:40.789Z,13.34
2022-11-15T03:38:34.201Z,13.35
2022-11-15T03:44:05.671Z,13.70
2022-11-15T03:46:57.393Z,13.71
2022-11-15T03:49:42.297Z,14.08
2022-11-15T03:52:14.942Z,13.77
2022-11-15T03:54:58.857Z,14.03
2022-11-15T03:57:26.983Z,14.09
2022-11-15T03:59:57.515Z,13.35
2022-11-15T04:02:24.653Z,14.02
2022-11-15T04:04:53.273Z,13.77
2022-11-15T04:07:24.882Z,13.87
2022-11-15T04:10:06.417Z,13.22
2022-11-15T04:12:45.721Z,12.91
2022-11-15T04:15:20.491Z,13.19
2022-11-15T04:18:07.999Z,13.95
2022-11-15T04:20:54.449Z,14.08
2022-11-15T04:23:44.110Z,14.52
2022-11-15T04:26:19.272Z,14.28
2022-11-15T04:29:05.176Z,13.38
2022-11-15T04:31:38.418Z,14.03
2022-11-15T04:34:09.282Z,13.99
2022-11-15T04:36:55.244Z,14.31
2022-11-15T04:39:22.786Z,14.24
2022-11-15T04:41:50.844Z,14.04
2022-11-15T04:44:17.980Z,14.22
2022-11-15T04:46:45.079Z,14.12
2022-11-15T04:49:16.359Z,13.74
2022-11-15T04:51:51.076Z,14.08
2022-11-15T04:54:18.655Z,14.27
2022-11-15T04:56:56.989Z,14.18
2022-11-15T04:59:27.086Z,13.44
2022-11-15T05:01:54.319Z,13.62
2022-11-15T05:04:24.107Z,13.71
2022-11-15T05:06:52.816Z,13.88
2022-11-15T05:09:23.002Z,13.14
2022-11-15T05:11:54.559Z,12.66
2022-11-15T05:14:25.687Z,12.66
2022-11-15T05:16:59.579Z,13.13
2022-11-15T05:19:30.239Z,13.16
2022-11-15T05:22:05.370Z,13.18
2022-11-15T05:24:35.819Z,13.38
2022-11-15T05:27:06.584Z,12.65
2022-11-15T05:29:34.759Z,12.17
2022-11-15T05:32:05.789Z,13.21
2022-11-15T05:34:34.301Z,13.70
2022-11-15T05:37:09.839Z,13.94
2022-11-15T05:39:37.159Z,12.54
2022-11-15T05:42:14.391Z,12.44
2022-11-15T05:44:48.716Z,13.49
2022-11-15T05:47:24.907Z,13.60
2022-11-15T05:49:55.990Z,13.17
2022-11-15T05:52:38.116Z,13.02
2022-11-15T05:55:15.140Z,13.33
2022-11-15T05:57:42.787Z,12.77
2022-11-15T06:00:14.742Z,11.47
2022-11-15T06:02:42.989Z,12.21
2022-11-15T06:05:10.841Z,12.22
2022-11-15T06:07:45.311Z,13.16
2022-11-15T06:10:13.945Z,13.60
2022-11-15T06:12:43.552Z,13.69
2022-11-15T06:15:11.007Z,13.97
2022-11-15T06:17:38.643Z,14.06
2022-11-15T06:20:07.569Z,13.98
2022-11-15T06:22:42.337Z,14.00
2022-11-15T06:25:09.535Z,14.08
2022-11-15T06:27:36.781Z,14.04
2022-11-15T06:30:11.439Z,13.93
2022-11-15T06:32:39.865Z,14.06
2022-11-15T06:35:14.015Z,13.95
2022-11-15T06:37:45.154Z,14.53
2022-11-15T06:40:15.068Z,14.96
2022-11-15T06:42:43.874Z,15.12
2022-11-15T06:45:20.762Z,15.39
2022-11-15T06:47:50.597Z,15.45
2022-11-15T06:50:20.424Z,15.69
2022-11-15T06:52:50.824Z,14.04
2022-11-15T06:55:19.908Z,13.31
2022-11-15T06:57:53.995Z,14.95
2022-11-15T07:00:25.336Z,15.38
2022-11-15T07:02:55.479Z,15.30
2022-11-15T07:05:23.750Z,15.06
2022-11-15T07:07:59.812Z,15.66
2022-11-15T07:10:28.381Z,15.73
2022-11-15T07:12:57.519Z,15.85
2022-11-15T07:15:27.704Z,15.84
2022-11-15T07:17:55.195Z,14.14
2022-11-15T07:20:22.230Z,14.96
2022-11-15T07:22:50.218Z,15.13
2022-11-15T07:25:28.747Z,14.95
2022-11-15T07:28:01.466Z,14.73
2022-11-15T07:30:45.400Z,14.79
2022-11-15T07:33:25.338Z,15.22
2022-11-15T07:35:52.550Z,15.16
2022-11-15T07:38:22.565Z,14.92
2022-11-15T07:41:03.056Z,15.64
2022-11-15T07:43:37.434Z,16.19
2022-11-15T07:46:17.690Z,15.82
2022-11-15T07:48:45.494Z,15.72
2022-11-15T07:51:18.112Z,16.72
2022-11-15T07:53:46.450Z,16.95
2022-11-15T07:56:15.695Z,16.86
2022-11-15T07:58:43.053Z,17.13
2022-11-15T08:01:13.824Z,17.23
2022-11-15T08:03:42.213Z,16.62
2022-11-15T08:06:09.838Z,16.38
2022-11-15T08:08:40.398Z,17.83
2022-11-15T08:11:13.847Z,18.38
2022-11-15T08:13:44.453Z,17.96
2022-11-15T08:16:18.057Z,17.64
2022-11-15T08:18:48.807Z,18.11
2022-11-15T08:21:27.905Z,18.47
2022-11-15T08:24:01.807Z,17.81
2022-11-15T08:26:31.097Z,17.50
2022-11-15T08:28:59.510Z,14.88
2022-11-15T08:31:27.863Z,14.54
2022-11-15T08:33:55.190Z,14.04
2022-11-15T08:36:39.467Z,13.71
2022-11-15T08:39:18.070Z,15.26
2022-11-15T08:41:48.203Z,13.90
2022-11-15T08:44:21.181Z,13.45
2022-11-15T08:46:50.898Z,15.79
2022-11-15T08:49:18.241Z,17.13
2022-11-15T08:51:46.914Z,17.40
2022-11-15T08:54:14.010Z,18.32
2022-11-15T08:56:45.923Z,19.32
2022-11-15T08:59:14.739Z,18.67
2022-11-15T09:01:43.032Z,18.50
2022-11-15T09:04:15.173Z,18.44
2022-11-15T09:09:24.670Z,18.35
2022-11-15T09:11:51.912Z,18.30
2022-11-15T09:14:25.375Z,18.80
2022-11-15T09:16:52.729Z,18.77
2022-11-15T09:19:20.477Z,18.32
2022-11-15T09:21:48.657Z,18.30
2022-11-15T09:24:20.111Z,19.15
2022-11-15T09:26:54.088Z,17.63
2022-11-15T09:29:23.954Z,17.87
2022-11-15T09:31:56.356Z,18.82
2022-11-15T09:34:24.877Z,19.83
2022-11-15T09:36:53.522Z,19.76
2022-11-15T09:39:25.199Z,20.26
2022-11-15T09:42:49.962Z,20.31
2022-11-15T09:46:00.516Z,20.15
2022-11-15T09:48:58.076Z,20.13
2022-11-15T09:51:39.115Z,19.62
2022-11-15T09:54:52.237Z,20.10
2022-11-15T09:57:30.062Z,19.52
2022-11-15T10:00:48.348Z,19.83
2022-11-15T10:03:38.284Z,20.38
2022-11-15T10:06:25.888Z,19.28
2022-11-15T10:09:20.008Z,19.03
2022-11-15T10:11:53.072Z,20.00
2022-11-15T10:14:28.923Z,20.53
2022-11-15T10:17:43.393Z,21.19
2022-11-15T10:20:37.886Z,20.10
2022-11-15T10:23:17.622Z,21.57
2022-11-15T10:25:47.453Z,21.35
2022-11-15T10:28:36.207Z,22.32
2022-11-15T10:31:05.763Z,22.95
2022-11-15T10:33:39.319Z,23.37
2022-11-15T10:36:26.456Z,23.49
2022-11-15T10:39:06.368Z,23.82
2022-11-15T10:44:47.877Z,24.01
2022-11-15T10:47:39.462Z,23.34
2022-11-15T10:50:32.960Z,23.48
2022-11-15T10:53:03.983Z,19.80
2022-11-15T10:55:34.908Z,20.56
2022-11-15T10:58:44.710Z,21.27
2022-11-15T11:01:30.019Z,21.44
2022-11-15T11:04:07.610Z,21.71
2022-11-15T11:07:00.903Z,20.80
2022-11-15T11:09:43.341Z,21.37
2022-11-15T11:12:16.804Z,20.86
2022-11-15T11:14:51.406Z,21.52
2022-11-15T11:17:36.352Z,21.42
2022-11-15T11:20:35.989Z,21.05
2022-11-15T11:23:39.210Z,21.57
2022-11-15T11:26:34.764Z,21.14
2022-11-15T11:29:58.348Z,21.16
2022-11-15T11:33:05.267Z,21.53
2022-11-15T11:36:02.316Z,21.30
2022-11-15T11:38:44.124Z,21.33
2022-11-15T11:42:12.903Z,19.63
2022-11-15T11:45:15.504Z,20.98
2022-11-15T11:47:56.256Z,20.59
2022-11-15T11:50:29.709Z,20.59
2022-11-15T11:53:42.833Z,20.64
2022-11-15T11:56:40.375Z,18.06
2022-11-15T11:59:17.612Z,18.52
2022-11-15T12:01:53.272Z,18.00
2022-11-15T12:04:44.040Z,19.57
2022-11-15T12:07:39.496Z,19.32
2022-11-15T12:10:27.266Z,19.19
2022-11-15T12:13:23.310Z,19.96
2022-11-15T12:16:04.967Z,20.21
2022-11-15T12:18:36.713Z,20.34
2022-11-15T12:21:46.971Z,19.70
2022-11-15T12:24:41.910Z,19.06
2022-11-15T12:27:55.591Z,19.65
2022-11-15T12:30:26.429Z,19.97
2022-11-15T12:33:03.170Z,17.84
2022-11-15T12:35:47.437Z,16.68
2022-11-15T12:39:11.006Z,17.82
2022-11-15T12:41:45.050Z,17.70
2022-11-15T12:44:32.156Z,17.31
2022-11-15T12:47:27.161Z,17.27
2022-11-15T12:50:03.523Z,17.62
2022-11-15T12:52:33.467Z,18.23
2022-11-15T12:55:09.593Z,18.26
2022-11-15T12:57:44.253Z,18.38
2022-11-15T13:00:32.353Z,18.67
2022-11-15T13:03:27.223Z,18.75
2022-11-15T13:06:00.360Z,18.33
2022-11-15T13:08:49.693Z,18.05
2022-11-15T13:11:51.235Z,18.25
2022-11-15T13:15:00.483Z,17.73
2022-11-15T13:17:42.908Z,18.52
2022-11-15T13:20:23.516Z,18.46
2022-11-15T13:23:06.975Z,18.14
2022-11-15T13:25:36.907Z,18.15
2022-11-15T13:28:53.853Z,18.28
2022-11-15T13:31:44.634Z,18.86
2022-11-15T13:34:53.405Z,18.41
2022-11-15T13:37:23.705Z,18.49
2022-11-15T13:39:56.382Z,18.08
2022-11-15T13:42:26.147Z,17.68
2022-11-15T13:45:07.537Z,17.70
2022-11-15T13:47:40.091Z,17.78
2022-11-15T13:50:23.732Z,17.19
2022-11-15T13:52:53.769Z,17.17
2022-11-15T13:55:26.709Z,18.32
2022-11-15T13:58:14.317Z,17.39
2022-11-15T14:00:53.383Z,18.27
2022-11-15T14:03:49.369Z,18.22
2022-11-15T14:06:21.278Z,18.35
2022-11-15T14:09:21.558Z,18.06
2022-11-15T14:11:57.389Z,18.12
2022-11-15T14:14:30.312Z,17.80
2022-11-15T14:17:02.710Z,18.77
2022-11-15T14:19:33.153Z,18.82
2022-11-15T14:22:38.112Z,18.60
2022-11-15T14:25:34.882Z,18.82
2022-11-15T14:28:33.369Z,18.63
2022-11-15T14:31:14.220Z,17.97
2022-11-15T14:33:43.068Z,18.71
2022-11-15T14:36:24.608Z,17.84
2022-11-15T14:38:51.860Z,18.54
2022-11-15T14:41:25.353Z,18.60
2022-11-15T14:43:54.257Z,17.13
2022-11-15T14:46:21.360Z,17.46
2022-11-15T14:48:49.006Z,17.98
2022-11-15T14:51:21.467Z,18.53
2022-11-15T14:53:51.468Z,18.12
2022-11-15T14:56:28.931Z,18.96
2022-11-15T14:59:01.161Z,18.67
2022-11-15T15:01:36.657Z,18.58
2022-11-15T15:04:09.988Z,18.32
2022-11-15T15:06:39.441Z,18.38
2022-11-15T15:09:07.133Z,18.07
2022-11-15T15:11:34.343Z,18.23
2022-11-15T15:14:09.094Z,18.16
2022-11-15T15:16:38.619Z,18.27
2022-11-15T15:19:08.955Z,17.31
2022-11-15T15:21:40.051Z,17.63
2022-11-15T15:24:09.029Z,17.59
2022-11-15T15:26:39.175Z,17.04
2022-11-15T15:29:14.817Z,17.24
2022-11-15T15:31:42.149Z,17.20
2022-11-15T15:34:15.369Z,16.78
2022-11-15T15:36:44.001Z,16.64
2022-11-15T15:39:20.109Z,16.67
2022-11-15T15:41:54.790Z,17.22
2022-11-15T15:44:25.653Z,17.23
2022-11-15T15:46:54.110Z,16.92
2022-11-15T15:49:24.158Z,17.41
2022-11-15T15:51:52.449Z,16.93
2022-11-15T15:54:24.477Z,17.79
2022-11-15T15:56:58.581Z,18.05
2022-11-15T15:59:25.928Z,18.07
2022-11-15T16:01:52.865Z,17.73
2022-11-15T16:04:23.135Z,17.77
2022-11-15T16:06:53.863Z,17.98
2022-11-15T16:09:57.532Z,17.33
2022-11-15T16:12:31.861Z,17.05
2022-11-15T16:15:01.341Z,17.69
2022-11-15T16:17:38.601Z,16.15
2022-11-15T16:20:37.021Z,16.98
2022-11-15T16:23:11.234Z,16.88
2022-11-15T16:25:59.034Z,16.58
2022-11-15T16:28:39.030Z,16.18
2022-11-15T16:31:14.192Z,16.39
2022-11-15T16:33:49.088Z,16.39
2022-11-15T16:36:30.482Z,16.17
2022-11-15T16:39:00.761Z,15.84
2022-11-15T16:41:28.144Z,16.49
2022-11-15T16:44:03.900Z,16.21
2022-11-15T16:46:31.499Z,16.23
2022-11-15T16:48:58.730Z,15.64
2022-11-15T16:51:32.641Z,16.27
2022-11-15T16:54:03.426Z,15.78
2022-11-15T16:56:36.517Z,15.25
2022-11-15T16:59:06.607Z,15.53
2022-11-15T17:01:49.270Z,16.14
2022-11-15T17:04:34.835Z,15.81
2022-11-15T17:07:11.709Z,15.50
2022-11-15T17:09:39.190Z,16.46
2022-11-15T17:12:07.617Z,16.43
2022-11-15T17:14:37.048Z,16.30
2022-11-15T17:17:10.197Z,15.63
2022-11-15T17:19:43.472Z,15.64
2022-11-15T17:22:11.527Z,16.09
2022-11-15T17:24:45.262Z,15.94
2022-11-15T17:27:12.462Z,15.86
2022-11-15T17:29:45.211Z,15.45
2022-11-15T17:32:16.218Z,16.25
2022-11-15T17:34:43.935Z,16.29
2022-11-15T17:37:12.130Z,16.33
2022-11-15T17:39:48.602Z,16.50
2022-11-15T17:42:16.647Z,16.21
2022-11-15T17:44:43.845Z,16.37
2022-11-15T17:47:12.241Z,16.44
2022-11-15T17:49:42.188Z,16.13
2022-11-15T17:52:12.606Z,16.38
2022-11-15T17:54:46.811Z,16.83
2022-11-15T17:57:18.957Z,17.03
2022-11-15T17:59:46.092Z,16.77
2022-11-15T18:02:13.260Z,16.16
2022-11-15T18:04:45.202Z,15.91
2022-11-15T18:07:14.383Z,15.82
2022-11-15T18:09:47.654Z,16.44
2022-11-15T18:12:18.136Z,15.68
2022-11-15T18:15:05.425Z,15.96
2022-11-15T18:17:39.988Z,15.43
2022-11-15T18:20:08.611Z,15.14
2022-11-15T18:22:41.571Z,15.92
2022-11-15T18:25:10.411Z,15.57
2022-11-15T18:27:45.485Z,15.22
2022-11-15T18:30:14.233Z,15.91
2022-11-15T18:32:52.275Z,15.72
2022-11-15T18:35:25.116Z,16.32
2022-11-15T18:37:58.190Z,15.97
2022-11-15T18:40:34.377Z,16.12
2022-11-15T18:43:02.065Z,15.97
2022-11-15T18:45:29.298Z,14.95
2022-11-15T18:48:01.415Z,15.39
2022-11-15T18:50:32.406Z,16.46
2022-11-15T18:53:06.793Z,16.56
2022-11-15T18:55:36.541Z,16.93
2022-11-15T18:58:06.798Z,16.19
2022-11-15T19:00:38.155Z,16.85
2022-11-15T19:03:10.110Z,16.24
2022-11-15T19:05:44.534Z,16.51
2022-11-15T19:08:15.106Z,16.41
2022-11-15T19:10:45.210Z,16.41
2022-11-15T19:13:14.854Z,16.29
2022-11-15T19:15:47.257Z,16.10
2022-11-15T19:18:35.271Z,15.31
2022-11-15T19:21:25.975Z,15.34
2022-11-15T19:23:56.760Z,15.25
2022-11-15T19:26:25.427Z,15.85
2022-11-15T19:28:59.146Z,15.82
2022-11-15T19:31:32.780Z,15.71
2022-11-15T19:34:08.228Z,14.87
2022-11-15T19:36:44.926Z,15.38
2022-11-15T19:39:22.111Z,15.14
2022-11-15T19:41:56.731Z,15.47
2022-11-15T19:44:27.325Z,15.97
2022-11-15T19:46:54.548Z,16.80
2022-11-15T19:49:25.223Z,15.81
2022-11-15T19:51:56.097Z,15.71
2022-11-15T19:54:27.647Z,15.69
2022-11-15T19:56:55.017Z,15.61
2022-11-15T19:59:23.553Z,16.05
2022-11-15T20:02:04.744Z,15.64
2022-11-15T20:04:36.781Z,15.22
2022-11-15T20:07:09.619Z,16.11
2022-11-15T20:09:47.351Z,16.59
2022-11-15T20:12:22.114Z,15.71
2022-11-15T20:14:52.997Z,16.53
2022-11-15T20:17:26.656Z,16.25
2022-11-15T20:19:56.842Z,16.97
2022-11-15T20:22:27.051Z,17.11
2022-11-15T20:24:57.777Z,16.46
2022-11-15T20:27:26.842Z,16.25
2022-11-15T20:29:59.075Z,16.84
2022-11-15T20:38:12.805Z,15.85
2022-11-15T20:53:21.460Z,16.97
2022-11-15T20:56:07.921Z,16.06
2022-11-15T20:58:37.696Z,16.67
2022-11-15T21:01:20.343Z,17.12
2022-11-15T21:04:04.185Z,17.53
2022-11-15T21:06:36.036Z,16.78
2022-11-15T21:09:29.201Z,16.67
2022-11-15T21:12:08.160Z,16.61
2022-11-15T21:14:49.821Z,16.41
2022-11-15T21:17:21.147Z,16.22
2022-11-15T21:19:50.336Z,16.90
2022-11-15T21:22:22.127Z,17.07
2022-11-15T21:24:53.815Z,15.96
2022-11-15T21:27:30.227Z,16.50
2022-11-15T21:29:57.765Z,16.71
2022-11-15T21:35:16.045Z,16.93
2022-11-15T21:37:43.757Z,17.04
2022-11-15T21:40:15.026Z,16.94
2022-11-15T21:42:48.071Z,16.88
2022-11-15T21:45:16.936Z,16.66
2022-11-15T21:47:46.924Z,16.66
2022-11-15T21:50:21.801Z,16.89
2022-11-15T21:52:55.306Z,16.98
2022-11-15T21:55:25.009Z,16.60
2022-11-15T21:57:57.904Z,16.65
2022-11-15T22:00:32.761Z,15.81
2022-11-15T22:03:12.200Z,15.75
2022-11-15T22:05:44.748Z,15.71
2022-11-15T22:08:15.713Z,15.79
2022-11-15T22:10:47.768Z,16.17
2022-11-15T22:13:15.574Z,16.42
2022-11-15T22:15:46.462Z,16.67
2022-11-15T22:18:26.926Z,17.10
2022-11-15T22:21:03.810Z,17.89
2022-11-15T22:23:37.748Z,17.35
2022-11-15T22:26:12.001Z,17.33
2022-11-15T22:28:43.529Z,17.32
2022-11-15T22:31:12.042Z,16.99
2022-11-15T22:33:41.277Z,17.33
2022-11-15T22:36:16.183Z,17.15
2022-11-15T22:38:45.179Z,17.24
2022-11-15T22:41:19.001Z,16.39
2022-11-15T22:43:52.363Z,17.04
2022-11-15T22:46:22.504Z,16.23
2022-11-15T22:48:52.723Z,17.36
2022-11-15T22:51:20.452Z,17.36
2022-11-15T22:53:52.900Z,16.74
2022-11-15T22:56:23.573Z,17.01
2022-11-15T22:58:50.858Z,16.77
2022-11-15T23:01:25.606Z,17.27
2022-11-15T23:03:53.547Z,17.70
2022-11-15T23:06:26.765Z,17.30
2022-11-15T23:08:57.550Z,17.30
2022-11-15T23:11:28.814Z,15.73
2022-11-15T23:13:57.297Z,16.44
2022-11-15T23:16:35.339Z,17.00
2022-11-15T23:19:12.894Z,17.12
2022-11-15T23:21:48.330Z,16.99
2022-11-15T23:24:24.436Z,16.96
2022-11-15T23:27:01.052Z,16.98
2022-11-15T23:29:34.215Z,16.89
2022-11-15T23:32:08.017Z,16.88
2022-11-15T23:34:43.975Z,16.86
2022-11-15T23:37:20.730Z,17.53
2022-11-15T23:39:53.684Z,17.46
2022-11-15T23:42:26.361Z,17.69
2022-11-15T23:44:54.582Z,17.20
2022-11-15T23:47:28.936Z,17.22
2022-11-15T23:49:57.236Z,17.30
2022-11-15T23:52:40.463Z,17.30
2022-11-15T23:55:16.121Z,17.64
2022-11-15T23:57:52.209Z,16.86
